sensor_id;sensor_type;location;lat;lon;timestamp;temperature;humidity
9033;DHT22;4551;53.164;8.210;2022-09-12T00:00:49;15.40;99.90
9033;DHT22;4551;53.164;8.210;2022-09-12T00:03:17;15.30;99.90
9033;DHT22;4551;53.164;8.210;2022-09-12T00:05:45;15.30;99.90
9033;DHT22;4551;53.164;8.210;2022-09-12T00:08:14;15.30;99.90
9033;DHT22;4551;53.164;8.210;2022-09-12T00:10:42;15.30;99.90
9033;DHT22;4551;53.164;8.210;2022-09-12T00:13:12;15.30;99.90
9033;DHT22;4551;53.164;8.210;2022-09-12T00:15:41;15.20;99.90
9033;DHT22;4551;53.164;8.210;2022-09-12T00:18:12;15.20;99.90
9033;DHT22;4551;53.164;8.210;2022-09-12T00:20:40;15.20;99.90
9033;DHT22;4551;53.164;8.210;2022-09-12T00:23:08;15.20;99.90
9033;DHT22;4551;53.164;8.210;2022-09-12T00:25:39;15.20;99.90
9033;DHT22;4551;53.164;8.210;2022-09-12T00:28:07;15.10;99.90
9033;DHT22;4551;53.164;8.210;2022-09-12T00:30:40;15.10;99.90
9033;DHT22;4551;53.164;8.210;2022-09-12T00:33:08;15.10;99.90
9033;DHT22;4551;53.164;8.210;2022-09-12T00:35:40;15.10;99.90
9033;DHT22;4551;53.164;8.210;2022-09-12T00:38:08;15.00;99.90
9033;DHT22;4551;53.164;8.210;2022-09-12T00:40:36;15.00;99.90
9033;DHT22;4551;53.164;8.210;2022-09-12T00:43:04;15.00;99.90
9033;DHT22;4551;53.164;8.210;2022-09-12T00:45:32;15.00;99.90
9033;DHT22;4551;53.164;8.210;2022-09-12T00:48:01;15.00;99.90
9033;DHT22;4551;53.164;8.210;2022-09-12T00:50:30;14.90;99.90
9033;DHT22;4551;53.164;8.210;2022-09-12T00:52:59;14.90;99.90
9033;DHT22;4551;53.164;8.210;2022-09-12T00:55:30;14.80;99.90
9033;DHT22;4551;53.164;8.210;2022-09-12T00:57:59;14.80;99.90
9033;DHT22;4551;53.164;8.210;2022-09-12T01:00:28;14.80;99.90
9033;DHT22;4551;53.164;8.210;2022-09-12T01:02:57;14.80;99.90
9033;DHT22;4551;53.164;8.210;2022-09-12T01:05:28;14.80;99.90
9033;DHT22;4551;53.164;8.210;2022-09-12T01:07:57;14.70;99.90
9033;DHT22;4551;53.164;8.210;2022-09-12T01:10:27;14.80;99.90
9033;DHT22;4551;53.164;8.210;2022-09-12T01:12:55;14.70;99.90
9033;DHT22;4551;53.164;8.210;2022-09-12T01:15:23;14.70;99.90
9033;DHT22;4551;53.164;8.210;2022-09-12T01:17:57;14.70;99.90
9033;DHT22;4551;53.164;8.210;2022-09-12T01:20:42;14.70;99.90
9033;DHT22;4551;53.164;8.210;2022-09-12T01:26:13;14.70;99.90
9033;DHT22;4551;53.164;8.210;2022-09-12T01:28:48;14.60;99.90
9033;DHT22;4551;53.164;8.210;2022-09-12T01:31:21;14.60;99.90
9033;DHT22;4551;53.164;8.210;2022-09-12T01:34:00;14.60;99.90
9033;DHT22;4551;53.164;8.210;2022-09-12T01:36:32;14.50;99.90
9033;DHT22;4551;53.164;8.210;2022-09-12T01:39:02;14.50;99.90
9033;DHT22;4551;53.164;8.210;2022-09-12T01:41:33;14.50;99.90
9033;DHT22;4551;53.164;8.210;2022-09-12T01:44:08;14.50;99.90
9033;DHT22;4551;53.164;8.210;2022-09-12T01:46:41;14.50;99.90
9033;DHT22;4551;53.164;8.210;2022-09-12T01:49:12;14.50;99.90
9033;DHT22;4551;53.164;8.210;2022-09-12T01:51:43;14.40;99.90
9033;DHT22;4551;53.164;8.210;2022-09-12T01:54:15;14.40;99.90
9033;DHT22;4551;53.164;8.210;2022-09-12T01:56:45;14.40;99.90
9033;DHT22;4551;53.164;8.210;2022-09-12T01:59:14;14.40;99.90
9033;DHT22;4551;53.164;8.210;2022-09-12T02:01:46;14.40;99.90
9033;DHT22;4551;53.164;8.210;2022-09-12T02:04:17;14.30;99.90
9033;DHT22;4551;53.164;8.210;2022-09-12T02:06:48;14.30;99.90
9033;DHT22;4551;53.164;8.210;2022-09-12T02:09:19;14.40;99.90
9033;DHT22;4551;53.164;8.210;2022-09-12T02:11:49;14.30;99.90
9033;DHT22;4551;53.164;8.210;2022-09-12T02:14:19;14.30;99.90
9033;DHT22;4551;53.164;8.210;2022-09-12T02:16:50;14.30;99.90
9033;DHT22;4551;53.164;8.210;2022-09-12T02:19:20;14.30;99.90
9033;DHT22;4551;53.164;8.210;2022-09-12T02:21:51;14.30;99.90
9033;DHT22;4551;53.164;8.210;2022-09-12T02:24:20;14.30;99.90
9033;DHT22;4551;53.164;8.210;2022-09-12T02:26:51;14.20;99.90
9033;DHT22;4551;53.164;8.210;2022-09-12T02:29:21;14.20;99.90
9033;DHT22;4551;53.164;8.210;2022-09-12T02:31:51;14.20;99.90
9033;DHT22;4551;53.164;8.210;2022-09-12T02:34:31;14.20;99.90
9033;DHT22;4551;53.164;8.210;2022-09-12T02:37:06;14.20;99.90
9033;DHT22;4551;53.164;8.210;2022-09-12T02:39:34;14.20;99.90
9033;DHT22;4551;53.164;8.210;2022-09-12T02:42:02;14.10;99.90
9033;DHT22;4551;53.164;8.210;2022-09-12T02:44:31;14.10;99.90
9033;DHT22;4551;53.164;8.210;2022-09-12T02:47:02;14.10;99.90
9033;DHT22;4551;53.164;8.210;2022-09-12T02:49:31;14.10;99.90
9033;DHT22;4551;53.164;8.210;2022-09-12T02:51:59;14.10;99.90
9033;DHT22;4551;53.164;8.210;2022-09-12T02:54:28;14.00;99.90
9033;DHT22;4551;53.164;8.210;2022-09-12T02:56:56;14.00;99.90
9033;DHT22;4551;53.164;8.210;2022-09-12T02:59:24;14.00;99.90
9033;DHT22;4551;53.164;8.210;2022-09-12T03:02:05;14.00;99.90
9033;DHT22;4551;53.164;8.210;2022-09-12T03:04:37;13.90;99.90
9033;DHT22;4551;53.164;8.210;2022-09-12T03:07:11;13.80;99.90
9033;DHT22;4551;53.164;8.210;2022-09-12T03:09:42;13.90;99.90
9033;DHT22;4551;53.164;8.210;2022-09-12T03:12:21;13.80;99.90
9033;DHT22;4551;53.164;8.210;2022-09-12T03:14:56;13.80;99.90
9033;DHT22;4551;53.164;8.210;2022-09-12T03:17:32;13.80;99.90
9033;DHT22;4551;53.164;8.210;2022-09-12T03:20:02;13.70;99.90
9033;DHT22;4551;53.164;8.210;2022-09-12T03:22:37;13.70;99.90
9033;DHT22;4551;53.164;8.210;2022-09-12T03:25:10;13.70;99.90
9033;DHT22;4551;53.164;8.210;2022-09-12T03:27:41;13.70;99.90
9033;DHT22;4551;53.164;8.210;2022-09-12T03:30:11;13.70;99.90
9033;DHT22;4551;53.164;8.210;2022-09-12T03:32:41;13.60;99.90
9033;DHT22;4551;53.164;8.210;2022-09-12T03:35:09;13.60;99.90
9033;DHT22;4551;53.164;8.210;2022-09-12T03:37:38;13.60;99.90
9033;DHT22;4551;53.164;8.210;2022-09-12T03:40:06;13.60;99.90
9033;DHT22;4551;53.164;8.210;2022-09-12T03:42:35;13.50;99.90
9033;DHT22;4551;53.164;8.210;2022-09-12T03:45:03;13.50;99.90
9033;DHT22;4551;53.164;8.210;2022-09-12T03:47:31;13.50;99.90
9033;DHT22;4551;53.164;8.210;2022-09-12T03:50:00;13.50;99.90
9033;DHT22;4551;53.164;8.210;2022-09-12T03:52:28;13.50;99.90
9033;DHT22;4551;53.164;8.210;2022-09-12T03:54:56;13.50;99.90
9033;DHT22;4551;53.164;8.210;2022-09-12T03:57:24;13.40;99.90
9033;DHT22;4551;53.164;8.210;2022-09-12T03:59:52;13.40;99.90
9033;DHT22;4551;53.164;8.210;2022-09-12T04:02:20;13.50;99.90
9033;DHT22;4551;53.164;8.210;2022-09-12T04:04:48;13.40;99.90
9033;DHT22;4551;53.164;8.210;2022-09-12T04:07:17;13.40;99.90
9033;DHT22;4551;53.164;8.210;2022-09-12T04:09:45;13.40;99.90
9033;DHT22;4551;53.164;8.210;2022-09-12T04:12:13;13.40;99.90
9033;DHT22;4551;53.164;8.210;2022-09-12T04:14:41;13.40;99.90
9033;DHT22;4551;53.164;8.210;2022-09-12T04:17:09;13.40;99.90
9033;DHT22;4551;53.164;8.210;2022-09-12T04:19:37;13.30;99.90
9033;DHT22;4551;53.164;8.210;2022-09-12T04:22:05;13.30;99.90
9033;DHT22;4551;53.164;8.210;2022-09-12T04:24:34;13.30;99.90
9033;DHT22;4551;53.164;8.210;2022-09-12T04:27:02;13.30;99.90
9033;DHT22;4551;53.164;8.210;2022-09-12T04:29:33;13.30;99.90
9033;DHT22;4551;53.164;8.210;2022-09-12T04:32:02;13.30;99.90
9033;DHT22;4551;53.164;8.210;2022-09-12T04:34:30;13.30;99.90
9033;DHT22;4551;53.164;8.210;2022-09-12T04:36:58;13.30;99.90
9033;DHT22;4551;53.164;8.210;2022-09-12T04:39:26;13.30;99.90
9033;DHT22;4551;53.164;8.210;2022-09-12T04:41:55;13.20;99.90
9033;DHT22;4551;53.164;8.210;2022-09-12T04:44:23;13.20;99.90
9033;DHT22;4551;53.164;8.210;2022-09-12T04:46:51;13.20;99.90
9033;DHT22;4551;53.164;8.210;2022-09-12T04:49:19;13.20;99.90
9033;DHT22;4551;53.164;8.210;2022-09-12T04:51:47;13.20;99.90
9033;DHT22;4551;53.164;8.210;2022-09-12T04:54:16;13.30;99.90
9033;DHT22;4551;53.164;8.210;2022-09-12T04:56:45;13.20;99.90
9033;DHT22;4551;53.164;8.210;2022-09-12T04:59:16;13.20;99.90
9033;DHT22;4551;53.164;8.210;2022-09-12T05:01:45;13.20;99.90
9033;DHT22;4551;53.164;8.210;2022-09-12T05:04:14;13.20;99.90
9033;DHT22;4551;53.164;8.210;2022-09-12T05:06:42;13.20;99.90
9033;DHT22;4551;53.164;8.210;2022-09-12T05:09:13;13.20;99.90
9033;DHT22;4551;53.164;8.210;2022-09-12T05:11:42;13.20;99.90
9033;DHT22;4551;53.164;8.210;2022-09-12T05:14:32;13.20;99.90
9033;DHT22;4551;53.164;8.210;2022-09-12T05:17:00;13.20;99.90
9033;DHT22;4551;53.164;8.210;2022-09-12T05:19:29;13.20;99.90
9033;DHT22;4551;53.164;8.210;2022-09-12T05:21:58;13.20;99.90
9033;DHT22;4551;53.164;8.210;2022-09-12T05:24:26;13.20;99.90
9033;DHT22;4551;53.164;8.210;2022-09-12T05:26:54;13.20;99.90
9033;DHT22;4551;53.164;8.210;2022-09-12T05:29:22;13.20;99.90
9033;DHT22;4551;53.164;8.210;2022-09-12T05:31:52;13.20;99.90
9033;DHT22;4551;53.164;8.210;2022-09-12T05:34:20;13.20;99.90
9033;DHT22;4551;53.164;8.210;2022-09-12T05:36:48;13.20;99.90
9033;DHT22;4551;53.164;8.210;2022-09-12T05:39:16;13.30;99.90
9033;DHT22;4551;53.164;8.210;2022-09-12T05:41:45;13.20;99.90
9033;DHT22;4551;53.164;8.210;2022-09-12T05:44:13;13.30;99.90
9033;DHT22;4551;53.164;8.210;2022-09-12T05:46:41;13.30;99.90
9033;DHT22;4551;53.164;8.210;2022-09-12T05:49:12;13.30;99.90
9033;DHT22;4551;53.164;8.210;2022-09-12T05:51:40;13.40;99.90
9033;DHT22;4551;53.164;8.210;2022-09-12T05:54:10;13.30;99.90
9033;DHT22;4551;53.164;8.210;2022-09-12T05:56:39;13.40;99.90
9033;DHT22;4551;53.164;8.210;2022-09-12T05:59:11;13.40;99.90
9033;DHT22;4551;53.164;8.210;2022-09-12T06:01:39;13.40;99.90
9033;DHT22;4551;53.164;8.210;2022-09-12T06:04:08;13.40;99.90
9033;DHT22;4551;53.164;8.210;2022-09-12T06:06:38;13.50;99.90
9033;DHT22;4551;53.164;8.210;2022-09-12T06:09:07;13.50;99.90
9033;DHT22;4551;53.164;8.210;2022-09-12T06:11:35;14.00;99.90
9033;DHT22;4551;53.164;8.210;2022-09-12T06:14:06;13.60;99.90
9033;DHT22;4551;53.164;8.210;2022-09-12T06:16:35;13.60;99.90
9033;DHT22;4551;53.164;8.210;2022-09-12T06:19:04;13.60;99.90
9033;DHT22;4551;53.164;8.210;2022-09-12T06:21:33;13.70;99.90
9033;DHT22;4551;53.164;8.210;2022-09-12T06:24:02;13.80;99.90
9033;DHT22;4551;53.164;8.210;2022-09-12T06:26:31;13.80;99.90
9033;DHT22;4551;53.164;8.210;2022-09-12T06:28:59;13.80;99.90
9033;DHT22;4551;53.164;8.210;2022-09-12T06:31:28;13.90;99.90
9033;DHT22;4551;53.164;8.210;2022-09-12T06:33:58;14.00;99.90
9033;DHT22;4551;53.164;8.210;2022-09-12T06:36:28;14.00;99.90
9033;DHT22;4551;53.164;8.210;2022-09-12T06:38:57;14.10;99.90
9033;DHT22;4551;53.164;8.210;2022-09-12T06:41:28;14.10;99.90
9033;DHT22;4551;53.164;8.210;2022-09-12T06:43:57;14.20;99.90
9033;DHT22;4551;53.164;8.210;2022-09-12T06:46:25;14.20;99.90
9033;DHT22;4551;53.164;8.210;2022-09-12T06:48:54;14.30;99.90
9033;DHT22;4551;53.164;8.210;2022-09-12T06:51:22;14.40;99.90
9033;DHT22;4551;53.164;8.210;2022-09-12T06:53:50;14.40;99.90
9033;DHT22;4551;53.164;8.210;2022-09-12T06:56:19;14.50;99.90
9033;DHT22;4551;53.164;8.210;2022-09-12T06:58:49;14.50;99.90
9033;DHT22;4551;53.164;8.210;2022-09-12T07:01:18;14.60;99.90
9033;DHT22;4551;53.164;8.210;2022-09-12T07:03:47;14.70;99.90
9033;DHT22;4551;53.164;8.210;2022-09-12T07:06:16;14.70;99.90
9033;DHT22;4551;53.164;8.210;2022-09-12T07:08:44;14.80;99.90
9033;DHT22;4551;53.164;8.210;2022-09-12T07:11:15;14.90;99.90
9033;DHT22;4551;53.164;8.210;2022-09-12T07:13:44;15.00;99.90
9033;DHT22;4551;53.164;8.210;2022-09-12T07:16:13;15.10;99.90
9033;DHT22;4551;53.164;8.210;2022-09-12T07:18:48;15.20;99.90
9033;DHT22;4551;53.164;8.210;2022-09-12T07:21:16;15.30;99.90
9033;DHT22;4551;53.164;8.210;2022-09-12T07:23:45;15.40;99.90
9033;DHT22;4551;53.164;8.210;2022-09-12T07:26:13;15.50;99.90
9033;DHT22;4551;53.164;8.210;2022-09-12T07:28:42;15.50;99.90
9033;DHT22;4551;53.164;8.210;2022-09-12T07:31:10;15.60;99.90
9033;DHT22;4551;53.164;8.210;2022-09-12T07:33:40;15.70;99.90
9033;DHT22;4551;53.164;8.210;2022-09-12T07:36:09;15.80;99.90
9033;DHT22;4551;53.164;8.210;2022-09-12T07:38:38;15.90;99.90
9033;DHT22;4551;53.164;8.210;2022-09-12T07:41:10;15.90;99.90
9033;DHT22;4551;53.164;8.210;2022-09-12T07:43:38;16.00;99.90
9033;DHT22;4551;53.164;8.210;2022-09-12T07:46:06;16.10;99.90
9033;DHT22;4551;53.164;8.210;2022-09-12T07:48:34;16.20;99.90
9033;DHT22;4551;53.164;8.210;2022-09-12T07:51:04;16.20;99.90
9033;DHT22;4551;53.164;8.210;2022-09-12T07:53:33;16.30;99.90
9033;DHT22;4551;53.164;8.210;2022-09-12T07:56:02;16.30;99.90
9033;DHT22;4551;53.164;8.210;2022-09-12T07:58:32;16.40;99.90
9033;DHT22;4551;53.164;8.210;2022-09-12T08:01:02;16.50;99.90
9033;DHT22;4551;53.164;8.210;2022-09-12T08:03:30;16.50;99.90
9033;DHT22;4551;53.164;8.210;2022-09-12T08:06:02;16.60;99.90
9033;DHT22;4551;53.164;8.210;2022-09-12T08:08:32;16.60;99.90
9033;DHT22;4551;53.164;8.210;2022-09-12T08:11:00;16.60;99.90
9033;DHT22;4551;53.164;8.210;2022-09-12T08:13:28;16.60;99.90
9033;DHT22;4551;53.164;8.210;2022-09-12T08:15:56;16.70;99.90
9033;DHT22;4551;53.164;8.210;2022-09-12T08:18:25;16.70;99.90
9033;DHT22;4551;53.164;8.210;2022-09-12T08:20:56;16.80;99.90
9033;DHT22;4551;53.164;8.210;2022-09-12T08:23:25;16.80;99.90
9033;DHT22;4551;53.164;8.210;2022-09-12T08:25:55;16.90;99.90
9033;DHT22;4551;53.164;8.210;2022-09-12T08:28:24;16.90;99.90
9033;DHT22;4551;53.164;8.210;2022-09-12T08:30:52;17.00;99.90
9033;DHT22;4551;53.164;8.210;2022-09-12T08:33:21;17.10;99.90
9033;DHT22;4551;53.164;8.210;2022-09-12T08:35:53;17.10;99.90
9033;DHT22;4551;53.164;8.210;2022-09-12T08:38:20;17.20;99.90
9033;DHT22;4551;53.164;8.210;2022-09-12T08:40:49;17.20;99.90
9033;DHT22;4551;53.164;8.210;2022-09-12T08:43:26;17.30;99.90
9033;DHT22;4551;53.164;8.210;2022-09-12T08:45:57;17.30;99.90
9033;DHT22;4551;53.164;8.210;2022-09-12T08:48:27;17.40;99.90
9033;DHT22;4551;53.164;8.210;2022-09-12T08:50:57;17.40;99.90
9033;DHT22;4551;53.164;8.210;2022-09-12T08:53:25;17.50;99.90
9033;DHT22;4551;53.164;8.210;2022-09-12T08:55:55;17.60;99.90
9033;DHT22;4551;53.164;8.210;2022-09-12T08:58:26;17.70;99.90
9033;DHT22;4551;53.164;8.210;2022-09-12T09:00:56;17.70;99.90
9033;DHT22;4551;53.164;8.210;2022-09-12T09:03:32;17.80;99.90
9033;DHT22;4551;53.164;8.210;2022-09-12T09:06:06;17.90;99.90
9033;DHT22;4551;53.164;8.210;2022-09-12T09:08:43;17.90;99.90
9033;DHT22;4551;53.164;8.210;2022-09-12T09:11:17;18.00;99.90
9033;DHT22;4551;53.164;8.210;2022-09-12T09:13:53;18.10;99.90
9033;DHT22;4551;53.164;8.210;2022-09-12T09:16:41;18.20;99.90
9033;DHT22;4551;53.164;8.210;2022-09-12T09:19:11;18.20;99.90
9033;DHT22;4551;53.164;8.210;2022-09-12T09:21:43;18.20;99.90
9033;DHT22;4551;53.164;8.210;2022-09-12T09:24:15;18.30;99.90
9033;DHT22;4551;53.164;8.210;2022-09-12T09:26:45;18.40;99.90
9033;DHT22;4551;53.164;8.210;2022-09-12T09:29:18;18.40;99.90
9033;DHT22;4551;53.164;8.210;2022-09-12T09:31:47;18.50;99.90
9033;DHT22;4551;53.164;8.210;2022-09-12T09:34:17;18.50;99.90
9033;DHT22;4551;53.164;8.210;2022-09-12T09:36:48;18.60;99.90
9033;DHT22;4551;53.164;8.210;2022-09-12T09:39:23;18.60;99.90
9033;DHT22;4551;53.164;8.210;2022-09-12T09:41:58;18.60;99.90
9033;DHT22;4551;53.164;8.210;2022-09-12T09:44:30;18.70;99.90
9033;DHT22;4551;53.164;8.210;2022-09-12T09:46:58;18.70;99.90
9033;DHT22;4551;53.164;8.210;2022-09-12T09:49:27;18.70;99.90
9033;DHT22;4551;53.164;8.210;2022-09-12T09:51:56;18.80;99.90
9033;DHT22;4551;53.164;8.210;2022-09-12T09:54:27;18.80;99.90
9033;DHT22;4551;53.164;8.210;2022-09-12T09:56:56;18.90;99.90
9033;DHT22;4551;53.164;8.210;2022-09-12T09:59:26;18.90;99.90
9033;DHT22;4551;53.164;8.210;2022-09-12T10:01:56;18.90;99.90
9033;DHT22;4551;53.164;8.210;2022-09-12T10:04:38;19.00;99.90
9033;DHT22;4551;53.164;8.210;2022-09-12T10:07:16;19.10;99.90
9033;DHT22;4551;53.164;8.210;2022-09-12T10:10:02;19.10;99.90
9033;DHT22;4551;53.164;8.210;2022-09-12T10:12:31;19.10;99.90
9033;DHT22;4551;53.164;8.210;2022-09-12T10:15:00;19.20;99.90
9033;DHT22;4551;53.164;8.210;2022-09-12T10:17:30;19.20;99.90
9033;DHT22;4551;53.164;8.210;2022-09-12T10:20:00;19.30;99.90
9033;DHT22;4551;53.164;8.210;2022-09-12T10:22:47;19.30;99.90
9033;DHT22;4551;53.164;8.210;2022-09-12T10:25:16;19.50;99.90
9033;DHT22;4551;53.164;8.210;2022-09-12T10:27:50;19.50;99.90
9033;DHT22;4551;53.164;8.210;2022-09-12T10:30:19;19.60;99.90
9033;DHT22;4551;53.164;8.210;2022-09-12T10:32:48;19.60;99.90
9033;DHT22;4551;53.164;8.210;2022-09-12T10:35:17;19.60;99.90
9033;DHT22;4551;53.164;8.210;2022-09-12T10:37:50;19.70;99.90
9033;DHT22;4551;53.164;8.210;2022-09-12T10:40:24;19.70;99.90
9033;DHT22;4551;53.164;8.210;2022-09-12T10:42:53;19.80;99.90
9033;DHT22;4551;53.164;8.210;2022-09-12T10:45:23;19.80;99.90
9033;DHT22;4551;53.164;8.210;2022-09-12T10:47:53;19.80;99.90
9033;DHT22;4551;53.164;8.210;2022-09-12T10:50:25;19.90;99.90
9033;DHT22;4551;53.164;8.210;2022-09-12T10:52:53;20.00;99.90
9033;DHT22;4551;53.164;8.210;2022-09-12T10:55:23;20.10;99.90
9033;DHT22;4551;53.164;8.210;2022-09-12T10:57:53;20.20;99.90
9033;DHT22;4551;53.164;8.210;2022-09-12T11:00:25;20.30;99.90
9033;DHT22;4551;53.164;8.210;2022-09-12T11:03:05;20.30;99.90
9033;DHT22;4551;53.164;8.210;2022-09-12T11:05:37;20.40;99.90
9033;DHT22;4551;53.164;8.210;2022-09-12T11:08:21;20.50;99.90
9033;DHT22;4551;53.164;8.210;2022-09-12T11:10:51;20.50;99.90
9033;DHT22;4551;53.164;8.210;2022-09-12T11:13:25;20.60;99.90
9033;DHT22;4551;53.164;8.210;2022-09-12T11:16:00;20.70;99.90
9033;DHT22;4551;53.164;8.210;2022-09-12T11:18:35;20.70;99.90
9033;DHT22;4551;53.164;8.210;2022-09-12T11:21:12;20.80;99.90
9033;DHT22;4551;53.164;8.210;2022-09-12T11:23:53;20.80;99.90
9033;DHT22;4551;53.164;8.210;2022-09-12T11:26:28;20.80;99.90
9033;DHT22;4551;53.164;8.210;2022-09-12T11:29:10;20.80;99.90
9033;DHT22;4551;53.164;8.210;2022-09-12T11:31:44;20.90;99.90
9033;DHT22;4551;53.164;8.210;2022-09-12T11:34:16;20.90;99.90
9033;DHT22;4551;53.164;8.210;2022-09-12T11:36:52;20.90;99.90
9033;DHT22;4551;53.164;8.210;2022-09-12T11:39:25;21.00;99.90
9033;DHT22;4551;53.164;8.210;2022-09-12T11:41:57;20.90;99.90
9033;DHT22;4551;53.164;8.210;2022-09-12T11:44:26;21.00;99.90
9033;DHT22;4551;53.164;8.210;2022-09-12T11:46:55;21.10;99.90
9033;DHT22;4551;53.164;8.210;2022-09-12T11:49:27;21.10;99.90
9033;DHT22;4551;53.164;8.210;2022-09-12T11:52:02;21.20;99.90
9033;DHT22;4551;53.164;8.210;2022-09-12T11:54:31;21.30;99.90
9033;DHT22;4551;53.164;8.210;2022-09-12T11:57:03;21.50;99.90
9033;DHT22;4551;53.164;8.210;2022-09-12T11:59:34;21.50;99.90
9033;DHT22;4551;53.164;8.210;2022-09-12T12:02:10;21.70;99.90
9033;DHT22;4551;53.164;8.210;2022-09-12T12:04:40;21.80;99.90
9033;DHT22;4551;53.164;8.210;2022-09-12T12:07:10;21.80;99.90
9033;DHT22;4551;53.164;8.210;2022-09-12T12:09:43;21.80;99.90
9033;DHT22;4551;53.164;8.210;2022-09-12T12:12:13;21.90;99.90
9033;DHT22;4551;53.164;8.210;2022-09-12T12:14:43;22.00;99.90
9033;DHT22;4551;53.164;8.210;2022-09-12T12:17:13;22.00;99.90
9033;DHT22;4551;53.164;8.210;2022-09-12T12:19:43;22.10;99.90
9033;DHT22;4551;53.164;8.210;2022-09-12T12:22:15;22.20;99.90
9033;DHT22;4551;53.164;8.210;2022-09-12T12:25:04;22.40;99.90
9033;DHT22;4551;53.164;8.210;2022-09-12T12:36:03;23.10;99.90
9033;DHT22;4551;53.164;8.210;2022-09-12T12:38:32;23.20;99.90
9033;DHT22;4551;53.164;8.210;2022-09-12T12:43:49;23.30;99.90
9033;DHT22;4551;53.164;8.210;2022-09-12T12:46:18;23.40;99.90
9033;DHT22;4551;53.164;8.210;2022-09-12T12:48:48;23.60;99.90
9033;DHT22;4551;53.164;8.210;2022-09-12T12:54:27;23.90;99.90
9033;DHT22;4551;53.164;8.210;2022-09-12T12:57:02;24.10;99.90
9033;DHT22;4551;53.164;8.210;2022-09-12T12:59:30;24.30;99.90
9033;DHT22;4551;53.164;8.210;2022-09-12T13:01:59;24.50;99.90
9033;DHT22;4551;53.164;8.210;2022-09-12T13:04:28;24.50;99.90
9033;DHT22;4551;53.164;8.210;2022-09-12T13:06:57;24.50;99.90
9033;DHT22;4551;53.164;8.210;2022-09-12T13:09:36;24.50;99.90
9033;DHT22;4551;53.164;8.210;2022-09-12T13:12:05;24.50;99.90
9033;DHT22;4551;53.164;8.210;2022-09-12T13:14:35;24.50;99.90
9033;DHT22;4551;53.164;8.210;2022-09-12T13:17:04;24.70;99.90
9033;DHT22;4551;53.164;8.210;2022-09-12T13:19:35;24.80;99.90
9033;DHT22;4551;53.164;8.210;2022-09-12T13:22:04;25.00;99.90
9033;DHT22;4551;53.164;8.210;2022-09-12T13:24:32;25.10;99.90
9033;DHT22;4551;53.164;8.210;2022-09-12T13:27:02;25.20;99.90
9033;DHT22;4551;53.164;8.210;2022-09-12T13:29:30;25.40;99.90
9033;DHT22;4551;53.164;8.210;2022-09-12T13:31:58;25.80;99.90
9033;DHT22;4551;53.164;8.210;2022-09-12T13:34:28;25.80;99.90
9033;DHT22;4551;53.164;8.210;2022-09-12T13:37:22;26.10;99.90
9033;DHT22;4551;53.164;8.210;2022-09-12T13:39:53;26.30;99.90
9033;DHT22;4551;53.164;8.210;2022-09-12T13:42:39;26.50;99.90
9033;DHT22;4551;53.164;8.210;2022-09-12T13:45:12;26.70;99.90
9033;DHT22;4551;53.164;8.210;2022-09-12T13:47:42;26.90;99.90
9033;DHT22;4551;53.164;8.210;2022-09-12T13:50:13;27.10;99.90
9033;DHT22;4551;53.164;8.210;2022-09-12T13:52:44;27.20;99.90
9033;DHT22;4551;53.164;8.210;2022-09-12T13:55:17;27.40;99.90
9033;DHT22;4551;53.164;8.210;2022-09-12T13:57:54;27.60;99.90
9033;DHT22;4551;53.164;8.210;2022-09-12T14:00:22;27.60;99.90
9033;DHT22;4551;53.164;8.210;2022-09-12T14:02:50;27.60;99.90
9033;DHT22;4551;53.164;8.210;2022-09-12T14:05:43;27.80;99.90
9033;DHT22;4551;53.164;8.210;2022-09-12T14:08:11;28.10;99.90
9033;DHT22;4551;53.164;8.210;2022-09-12T14:10:41;28.20;99.90
9033;DHT22;4551;53.164;8.210;2022-09-12T14:13:11;28.20;99.90
9033;DHT22;4551;53.164;8.210;2022-09-12T14:15:43;28.00;99.90
9033;DHT22;4551;53.164;8.210;2022-09-12T14:18:20;27.70;99.90
9033;DHT22;4551;53.164;8.210;2022-09-12T14:20:49;27.60;99.90
9033;DHT22;4551;53.164;8.210;2022-09-12T14:23:19;27.50;99.90
9033;DHT22;4551;53.164;8.210;2022-09-12T14:25:52;27.50;99.90
9033;DHT22;4551;53.164;8.210;2022-09-12T14:28:23;27.20;99.90
9033;DHT22;4551;53.164;8.210;2022-09-12T14:30:59;27.20;99.90
9033;DHT22;4551;53.164;8.210;2022-09-12T14:33:30;27.30;99.90
9033;DHT22;4551;53.164;8.210;2022-09-12T14:36:08;27.40;99.90
9033;DHT22;4551;53.164;8.210;2022-09-12T14:38:40;27.50;99.90
9033;DHT22;4551;53.164;8.210;2022-09-12T14:41:09;27.60;99.90
9033;DHT22;4551;53.164;8.210;2022-09-12T14:43:41;27.60;99.90
9033;DHT22;4551;53.164;8.210;2022-09-12T14:46:14;27.80;99.90
9033;DHT22;4551;53.164;8.210;2022-09-12T14:48:45;27.90;99.90
9033;DHT22;4551;53.164;8.210;2022-09-12T14:51:17;27.50;99.90
9033;DHT22;4551;53.164;8.210;2022-09-12T14:53:47;27.50;99.90
9033;DHT22;4551;53.164;8.210;2022-09-12T14:56:15;27.60;99.90
9033;DHT22;4551;53.164;8.210;2022-09-12T14:58:44;27.70;99.90
9033;DHT22;4551;53.164;8.210;2022-09-12T15:01:23;27.70;99.90
9033;DHT22;4551;53.164;8.210;2022-09-12T15:03:54;27.60;99.90
9033;DHT22;4551;53.164;8.210;2022-09-12T15:06:25;27.60;99.90
9033;DHT22;4551;53.164;8.210;2022-09-12T15:08:54;27.60;99.90
9033;DHT22;4551;53.164;8.210;2022-09-12T15:11:22;27.60;99.90
9033;DHT22;4551;53.164;8.210;2022-09-12T15:13:55;27.70;99.90
9033;DHT22;4551;53.164;8.210;2022-09-12T15:16:22;27.80;99.90
9033;DHT22;4551;53.164;8.210;2022-09-12T15:18:50;27.90;99.90
9033;DHT22;4551;53.164;8.210;2022-09-12T15:21:18;27.90;99.90
9033;DHT22;4551;53.164;8.210;2022-09-12T15:23:47;27.60;99.90
9033;DHT22;4551;53.164;8.210;2022-09-12T15:26:15;27.40;99.90
9033;DHT22;4551;53.164;8.210;2022-09-12T15:28:44;27.30;99.90
9033;DHT22;4551;53.164;8.210;2022-09-12T15:31:14;27.30;99.90
9033;DHT22;4551;53.164;8.210;2022-09-12T15:33:45;27.30;99.90
9033;DHT22;4551;53.164;8.210;2022-09-12T15:36:14;27.10;99.90
9033;DHT22;4551;53.164;8.210;2022-09-12T15:38:43;27.00;99.90
9033;DHT22;4551;53.164;8.210;2022-09-12T15:41:12;26.90;99.90
9033;DHT22;4551;53.164;8.210;2022-09-12T15:43:41;26.70;99.90
9033;DHT22;4551;53.164;8.210;2022-09-12T15:46:09;26.60;99.90
9033;DHT22;4551;53.164;8.210;2022-09-12T15:48:39;26.30;99.90
9033;DHT22;4551;53.164;8.210;2022-09-12T15:51:08;26.20;99.90
9033;DHT22;4551;53.164;8.210;2022-09-12T15:53:41;26.00;99.90
9033;DHT22;4551;53.164;8.210;2022-09-12T15:56:09;25.80;99.90
9033;DHT22;4551;53.164;8.210;2022-09-12T15:58:37;25.80;99.90
9033;DHT22;4551;53.164;8.210;2022-09-12T16:01:23;25.80;99.90
9033;DHT22;4551;53.164;8.210;2022-09-12T16:03:53;25.80;99.90
9033;DHT22;4551;53.164;8.210;2022-09-12T16:06:21;25.80;99.90
9033;DHT22;4551;53.164;8.210;2022-09-12T16:08:49;25.70;99.90
9033;DHT22;4551;53.164;8.210;2022-09-12T16:11:17;25.60;99.90
9033;DHT22;4551;53.164;8.210;2022-09-12T16:13:46;25.60;99.90
9033;DHT22;4551;53.164;8.210;2022-09-12T16:16:15;25.50;99.90
9033;DHT22;4551;53.164;8.210;2022-09-12T16:18:43;25.50;99.90
9033;DHT22;4551;53.164;8.210;2022-09-12T16:21:12;25.40;99.90
9033;DHT22;4551;53.164;8.210;2022-09-12T16:23:41;25.40;99.90
9033;DHT22;4551;53.164;8.210;2022-09-12T16:26:09;25.40;99.90
9033;DHT22;4551;53.164;8.210;2022-09-12T16:28:37;25.40;99.90
9033;DHT22;4551;53.164;8.210;2022-09-12T16:31:06;25.40;99.90
9033;DHT22;4551;53.164;8.210;2022-09-12T16:33:35;25.50;99.90
9033;DHT22;4551;53.164;8.210;2022-09-12T16:36:04;25.50;99.90
9033;DHT22;4551;53.164;8.210;2022-09-12T16:38:34;25.40;99.90
9033;DHT22;4551;53.164;8.210;2022-09-12T16:41:06;25.40;99.90